Time;durP1;ratioP1;P1;durP2;ratioP2;P2;SDS_P1;SDS_P2;PMS_P1;PMS_P2;Temp;Humidity;BMP_temperature;BMP_pressure;BME280_temperature;BME280_humidity;BME280_pressure;Samples;Min_cycle;Max_cycle;Signal;HPM_P1;HPM_P2
2022/01/23 00:02:06;;;;;;;9.47;3.17;;;7.80;99.90;;;;;;5973175;23;20293;-82
2022/01/23 00:04:35;;;;;;;13.73;3.50;;;7.80;99.90;;;;;;5972922;24;20558;-81
2022/01/23 00:07:03;;;;;;;14.73;3.70;;;7.70;99.90;;;;;;5974764;24;20176;-80
2022/01/23 00:09:30;;;;;;;10.17;3.80;;;7.70;99.90;;;;;;6015988;23;20557;-82
2022/01/23 00:11:59;;;;;;;8.10;3.20;;;7.70;99.90;;;;;;6059951;23;20177;-81
2022/01/23 00:17:20;;;;;;;10.37;3.60;;;7.70;99.90;;;;;;6061802;23;20197;-81
2022/01/23 00:19:51;;;;;;;11.37;3.63;;;7.80;99.90;;;;;;6061898;23;20185;-80
2022/01/23 00:22:20;;;;;;;12.43;3.13;;;7.70;99.90;;;;;;6061443;23;20166;-80
2022/01/23 00:30:26;;;;;;;15.50;3.90;;;7.70;99.90;;;;;;6060855;23;20329;-83
2022/01/23 00:32:55;;;;;;;12.27;3.03;;;7.70;99.90;;;;;;6162279;23;20212;-79
2022/01/23 00:35:23;;;;;;;10.20;3.27;;;7.80;99.90;;;;;;6208318;23;20174;-78
2022/01/23 00:37:50;;;;;;;9.53;4.10;;;7.80;99.90;;;;;;6197338;23;20206;-83
2022/01/23 00:40:17;;;;;;;8.83;3.20;;;7.80;99.90;;;;;;6179189;23;20178;-79
2022/01/23 00:42:44;;;;;;;7.67;3.20;;;7.80;99.90;;;;;;6178052;23;20167;-83
2022/01/23 00:45:30;;;;;;;8.67;3.27;;;7.90;99.90;;;;;;6178341;23;20179;-80
2022/01/23 00:48:01;;;;;;;11.90;3.37;;;7.80;99.90;;;;;;6177571;23;20191;-83
2022/01/23 00:50:31;;;;;;;7.33;2.97;;;7.80;99.90;;;;;;6177173;23;20226;-81
2022/01/23 00:52:58;;;;;;;9.13;2.63;;;7.80;99.90;;;;;;6177728;23;20166;-83
2022/01/23 00:55:25;;;;;;;9.60;2.90;;;7.70;99.90;;;;;;6177929;23;20209;-83
2022/01/23 00:57:51;;;;;;;14.30;4.00;;;7.70;99.90;;;;;;6178467;23;20209;-84
2022/01/23 01:00:19;;;;;;;9.43;3.13;;;7.70;99.90;;;;;;6178567;23;20174;-83
2022/01/23 01:02:46;;;;;;;6.60;2.77;;;7.70;99.90;;;;;;6178154;23;20170;-80
2022/01/23 01:05:13;;;;;;;7.20;2.27;;;7.70;99.90;;;;;;6178920;23;20175;-83
2022/01/23 01:07:42;;;;;;;9.50;3.40;;;7.70;99.90;;;;;;6178636;23;20171;-79
2022/01/23 01:10:15;;;;;;;6.50;2.00;;;7.60;99.90;;;;;;6178828;23;20179;-80
2022/01/23 01:12:43;;;;;;;5.47;1.30;;;7.60;99.90;;;;;;6177465;23;20269;-79
2022/01/23 01:31:46;;;;;;;0.60;0.40;;;7.30;99.90;;;;;;6176210;23;20214;-77
2022/01/23 01:34:18;;;;;;;1.13;0.50;;;7.30;99.90;;;;;;6176932;23;20222;-80
2022/01/23 01:36:49;;;;;;;1.40;0.50;;;7.30;99.90;;;;;;6176081;23;20171;-79
2022/01/23 01:39:19;;;;;;;0.40;0.27;;;7.30;99.90;;;;;;6176970;23;20194;-82
2022/01/23 01:41:47;;;;;;;0.50;0.50;;;7.20;99.90;;;;;;6176129;23;20171;-82
2022/01/23 01:44:15;;;;;;;0.37;0.37;;;7.20;99.90;;;;;;6175255;23;20167;-82
2022/01/23 01:46:42;;;;;;;0.93;0.43;;;7.20;99.90;;;;;;6175963;23;20190;-83
2022/01/23 01:49:09;;;;;;;0.50;0.30;;;7.20;99.90;;;;;;6175999;23;20844;-83
2022/01/23 01:51:37;;;;;;;0.63;0.40;;;7.20;99.90;;;;;;6175731;23;20701;-80
2022/01/23 01:54:11;;;;;;;0.93;0.50;;;7.10;99.90;;;;;;6174878;23;20182;-80
2022/01/23 01:56:48;;;;;;;0.67;0.40;;;7.10;99.90;;;;;;6175301;23;20571;-83
2022/01/23 01:59:33;;;;;;;0.33;0.33;;;7.10;99.90;;;;;;6175039;23;20265;-80
2022/01/23 02:10:13;;;;;;;3.70;1.07;;;7.00;99.90;;;;;;6179021;23;20220;-83
2022/01/23 02:16:07;;;;;;;1.33;0.90;;;7.10;99.90;;;;;;6178089;23;20269;-81
2022/01/23 02:24:33;;;;;;;3.17;0.90;;;7.10;99.90;;;;;;6178050;23;20170;-80
2022/01/23 02:51:50;;;;;;;8.67;3.10;;;7.30;99.90;;;;;;6174496;23;20244;-79
2022/01/23 02:54:38;;;;;;;3.90;2.50;;;7.30;99.90;;;;;;6175085;23;20170;-79
2022/01/23 02:57:06;;;;;;;8.23;3.63;;;7.30;99.90;;;;;;6174248;23;20175;-82
2022/01/23 02:59:36;;;;;;;7.87;4.60;;;7.40;99.90;;;;;;6174508;23;20251;-77
2022/01/23 03:02:11;;;;;;;7.00;3.87;;;7.40;99.90;;;;;;6178164;23;20214;-82
2022/01/23 03:04:47;;;;;;;13.20;4.70;;;7.40;99.90;;;;;;6177817;23;20171;-80
2022/01/23 03:07:48;;;;;;;8.93;4.57;;;7.40;99.90;;;;;;6178233;23;20563;-79
2022/01/23 03:10:19;;;;;;;6.60;4.10;;;7.40;99.90;;;;;;6177488;23;20166;-81
2022/01/23 03:15:42;;;;;;;7.07;4.07;;;7.50;99.90;;;;;;6173858;23;20234;-80
2022/01/23 03:26:29;;;;;;;9.60;4.67;;;7.40;99.90;;;;;;6178647;23;20164;-83
2022/01/23 03:31:43;;;;;;;9.23;3.90;;;7.40;99.90;;;;;;6179110;23;20725;-83
2022/01/23 03:34:10;;;;;;;8.53;3.50;;;7.40;99.90;;;;;;6177545;23;20552;-79
2022/01/23 03:36:38;;;;;;;6.20;3.67;;;7.40;99.90;;;;;;6177814;23;20174;-81
2022/01/23 03:39:07;;;;;;;9.77;4.67;;;7.40;99.90;;;;;;6176626;23;20207;-80
2022/01/23 03:41:37;;;;;;;5.33;3.83;;;7.30;99.90;;;;;;6176080;23;20170;-80
2022/01/23 03:44:05;;;;;;;8.93;4.33;;;7.30;99.90;;;;;;6176201;23;20179;-82
2022/01/23 03:46:47;;;;;;;8.03;4.00;;;7.30;99.90;;;;;;6175302;23;20226;-80
2022/01/23 03:49:31;;;;;;;10.23;4.80;;;7.30;99.90;;;;;;6175253;23;20162;-79
2022/01/23 03:51:59;;;;;;;9.47;5.50;;;7.30;99.90;;;;;;6175805;23;20167;-80
2022/01/23 03:54:27;;;;;;;8.67;4.60;;;7.30;99.90;;;;;;6175356;23;20182;-78
2022/01/23 03:56:56;;;;;;;13.63;4.43;;;7.30;99.90;;;;;;6176010;23;20440;-78
2022/01/23 03:59:23;;;;;;;7.07;4.50;;;7.30;99.90;;;;;;6175318;23;20483;-79
2022/01/23 04:01:50;;;;;;;8.33;4.47;;;7.30;99.90;;;;;;6176362;23;20183;-81
2022/01/23 04:04:30;;;;;;;6.93;3.50;;;7.20;99.90;;;;;;6175564;23;20184;-79
2022/01/23 04:06:57;;;;;;;6.20;4.10;;;7.20;99.90;;;;;;6175508;23;20582;-80
2022/01/23 04:09:24;;;;;;;16.33;5.70;;;7.20;99.90;;;;;;6175266;23;20173;-79
2022/01/23 04:11:51;;;;;;;9.40;4.97;;;7.20;99.90;;;;;;6176164;23;20174;-79
2022/01/23 04:14:22;;;;;;;13.00;5.67;;;7.20;99.90;;;;;;6175972;23;20174;-79
2022/01/23 04:17:15;;;;;;;9.20;4.90;;;7.30;99.90;;;;;;6176040;23;20182;-79
2022/01/23 04:19:56;;;;;;;9.23;4.20;;;7.20;99.90;;;;;;6175148;23;20502;-79
2022/01/23 04:33:41;;;;;;;5.70;4.10;;;7.20;99.90;;;;;;6175128;23;20638;-80
2022/01/23 04:48:06;;;;;;;7.63;3.27;;;7.10;99.90;;;;;;6175200;23;20170;-80
2022/01/23 05:01:15;;;;;;;7.20;3.97;;;7.10;99.90;;;;;;6178589;23;20821;-79
2022/01/23 05:04:07;;;;;;;7.17;3.97;;;7.10;99.90;;;;;;6177223;23;20202;-81
2022/01/23 05:06:41;;;;;;;10.50;4.67;;;7.10;99.90;;;;;;6178388;23;20282;-84
2022/01/23 05:09:09;;;;;;;7.97;3.90;;;7.10;99.90;;;;;;6178269;23;20198;-84
2022/01/23 05:11:36;;;;;;;5.83;3.93;;;7.10;99.90;;;;;;6176655;23;20269;-82
2022/01/23 05:14:03;;;;;;;10.87;5.70;;;7.10;99.90;;;;;;6178131;23;20870;-81
2022/01/23 05:16:31;;;;;;;10.87;4.67;;;7.10;99.90;;;;;;6175808;23;20174;-78
2022/01/23 05:18:59;;;;;;;8.77;4.20;;;7.00;99.90;;;;;;6175257;23;20208;-80
2022/01/23 05:21:51;;;;;;;8.07;4.50;;;7.00;99.90;;;;;;6177098;23;20181;-80
2022/01/23 05:24:23;;;;;;;7.30;4.03;;;7.00;99.90;;;;;;6176963;23;20253;-82
2022/01/23 05:26:49;;;;;;;7.90;4.33;;;7.00;99.90;;;;;;6176442;23;20174;-80
2022/01/23 05:29:16;;;;;;;9.27;4.93;;;7.00;99.90;;;;;;6176310;23;20178;-80
2022/01/23 05:31:43;;;;;;;7.30;4.20;;;7.00;99.90;;;;;;6174857;23;20211;-80
2022/01/23 05:34:12;;;;;;;6.50;3.97;;;7.00;99.90;;;;;;6176007;23;20441;-80
2022/01/23 05:36:38;;;;;;;6.53;3.53;;;7.00;99.90;;;;;;6174700;23;20748;-79
2022/01/23 05:39:05;;;;;;;4.97;3.33;;;7.00;99.90;;;;;;6174829;23;20591;-78
2022/01/23 05:41:33;;;;;;;4.73;3.53;;;7.00;99.90;;;;;;6175344;23;20222;-78
2022/01/23 05:44:00;;;;;;;3.93;3.17;;;7.00;99.90;;;;;;6176093;23;20178;-77
2022/01/23 05:46:27;;;;;;;4.43;3.73;;;7.00;99.90;;;;;;6174834;23;20498;-79
2022/01/23 05:48:54;;;;;;;7.20;4.80;;;7.00;99.90;;;;;;6175103;23;20171;-80
2022/01/23 05:51:22;;;;;;;9.77;6.13;;;7.00;99.90;;;;;;6176637;23;20885;-82
2022/01/23 05:53:49;;;;;;;6.70;4.67;;;7.00;99.90;;;;;;6177093;23;20194;-79
2022/01/23 05:56:17;;;;;;;7.73;4.90;;;7.00;99.90;;;;;;6177236;23;20238;-79
2022/01/23 05:58:44;;;;;;;5.93;4.23;;;7.00;99.90;;;;;;6176232;23;20298;-82
2022/01/23 06:01:11;;;;;;;6.10;4.20;;;6.90;99.90;;;;;;6176503;23;20182;-80
2022/01/23 06:03:37;;;;;;;8.77;4.60;;;6.90;99.90;;;;;;6177083;23;20309;-80
2022/01/23 06:06:04;;;;;;;8.13;4.43;;;6.90;99.90;;;;;;6176076;23;20850;-81
2022/01/23 06:08:33;;;;;;;5.77;4.20;;;7.00;99.90;;;;;;6175149;23;20167;-80
2022/01/23 06:11:00;;;;;;;4.73;3.80;;;6.90;99.90;;;;;;6176506;23;20190;-79
2022/01/23 06:13:28;;;;;;;6.27;4.50;;;6.90;99.90;;;;;;6175572;23;20179;-80
2022/01/23 06:15:55;;;;;;;5.20;4.13;;;6.90;99.90;;;;;;6175450;23;20177;-80
2022/01/23 06:18:22;;;;;;;4.53;3.83;;;6.90;99.90;;;;;;6176359;23;20198;-80
2022/01/23 06:20:49;;;;;;;5.50;4.27;;;6.90;99.90;;;;;;6173907;23;20185;-80
2022/01/23 06:23:16;;;;;;;4.97;4.07;;;6.90;99.90;;;;;;6175861;23;20178;-80
2022/01/23 06:25:46;;;;;;;7.10;4.77;;;6.90;99.90;;;;;;6176146;23;20232;-80
2022/01/23 06:28:18;;;;;;;6.70;4.60;;;6.90;99.90;;;;;;6175845;23;20619;-83
2022/01/23 06:30:45;;;;;;;4.57;4.10;;;6.90;99.90;;;;;;6177492;23;20818;-83
2022/01/23 06:33:11;;;;;;;5.33;3.87;;;6.90;99.90;;;;;;6177409;23;20206;-78
2022/01/23 06:35:38;;;;;;;6.67;4.53;;;6.90;99.90;;;;;;6177249;23;20183;-83
2022/01/23 06:38:05;;;;;;;5.83;4.07;;;6.90;99.90;;;;;;6178081;23;20199;-81
2022/01/23 06:40:32;;;;;;;7.80;3.97;;;6.90;99.90;;;;;;6176840;23;20730;-81
2022/01/23 06:43:00;;;;;;;12.37;5.40;;;6.90;99.90;;;;;;6175579;23;20178;-79
2022/01/23 06:45:26;;;;;;;6.77;4.37;;;6.90;99.90;;;;;;6174592;23;20170;-79
2022/01/23 06:47:54;;;;;;;6.57;4.80;;;6.90;99.90;;;;;;6174486;23;20178;-78
2022/01/23 06:50:20;;;;;;;6.10;4.50;;;6.90;99.90;;;;;;6175990;23;21212;-78
2022/01/23 06:52:47;;;;;;;5.27;4.27;;;6.90;99.90;;;;;;6175630;23;20799;-79
2022/01/23 06:55:17;;;;;;;7.27;4.40;;;6.90;99.90;;;;;;6175469;23;20178;-78
2022/01/23 06:57:43;;;;;;;6.17;4.20;;;6.80;99.90;;;;;;6175003;23;20186;-79
2022/01/23 07:00:12;;;;;;;5.87;4.43;;;6.80;99.90;;;;;;6175220;23;20198;-78
2022/01/23 07:02:39;;;;;;;4.80;4.03;;;6.90;99.90;;;;;;6175279;23;20435;-78
2022/01/23 07:05:06;;;;;;;7.03;3.70;;;6.80;99.90;;;;;;6176401;23;20174;-82
2022/01/23 07:07:33;;;;;;;4.67;3.30;;;6.80;99.90;;;;;;6177632;23;20179;-82
2022/01/23 07:10:00;;;;;;;7.53;4.60;;;6.80;99.90;;;;;;6177411;23;20175;-82
2022/01/23 07:12:27;;;;;;;6.33;3.70;;;6.80;99.90;;;;;;6175998;23;20327;-81
2022/01/23 07:14:53;;;;;;;5.67;4.03;;;6.80;99.90;;;;;;6176469;23;20209;-78
2022/01/23 07:17:22;;;;;;;3.63;3.27;;;6.80;99.90;;;;;;6175921;23;20233;-81
2022/01/23 07:19:49;;;;;;;4.07;3.50;;;6.80;99.90;;;;;;6175898;23;20281;-82
2022/01/23 07:22:15;;;;;;;4.27;3.07;;;6.80;99.90;;;;;;6176220;23;20179;-81
2022/01/23 07:24:42;;;;;;;4.13;3.03;;;6.80;99.90;;;;;;6176335;23;20183;-78
2022/01/23 07:27:15;;;;;;;5.13;3.03;;;6.80;99.90;;;;;;6176557;23;20174;-78
2022/01/23 07:29:44;;;;;;;3.73;3.07;;;6.80;99.90;;;;;;6176484;23;20206;-80
2022/01/23 07:32:11;;;;;;;3.57;2.70;;;6.80;99.90;;;;;;6175527;23;20207;-80
2022/01/23 07:34:39;;;;;;;4.77;3.53;;;6.80;99.90;;;;;;6176345;23;20174;-79
2022/01/23 07:37:06;;;;;;;3.83;2.67;;;6.80;99.90;;;;;;6176953;23;20174;-81
2022/01/23 07:39:33;;;;;;;4.63;3.70;;;6.80;99.90;;;;;;6175881;23;20202;-79
2022/01/23 07:42:00;;;;;;;12.90;5.80;;;6.80;99.90;;;;;;6175979;23;20646;-80
2022/01/23 07:44:26;;;;;;;7.07;4.80;;;6.80;99.90;;;;;;6176062;23;20392;-79
2022/01/23 07:46:54;;;;;;;7.97;4.93;;;6.80;99.90;;;;;;6175557;23;20568;-78
2022/01/23 07:49:21;;;;;;;6.73;4.80;;;6.80;99.90;;;;;;6177405;23;20179;-78
2022/01/23 07:51:49;;;;;;;8.47;5.63;;;6.90;99.90;;;;;;6148684;23;20587;-80
2022/01/23 07:54:17;;;;;;;7.03;4.90;;;6.90;99.90;;;;;;6173724;23;20175;-79
2022/01/23 07:56:44;;;;;;;8.50;4.57;;;6.90;99.90;;;;;;6173476;23;20201;-78
2022/01/23 07:59:11;;;;;;;5.63;4.73;;;6.90;99.90;;;;;;6174016;23;20195;-79
2022/01/23 08:01:39;;;;;;;7.80;5.23;;;6.90;99.90;;;;;;6174934;23;20174;-80
2022/01/23 08:04:06;;;;;;;8.90;5.63;;;6.90;99.90;;;;;;6175302;23;20171;-80
2022/01/23 08:06:40;;;;;;;7.97;5.60;;;6.90;99.90;;;;;;6172771;23;20271;-78
2022/01/23 08:09:09;;;;;;;6.37;5.30;;;6.90;99.90;;;;;;6175982;23;20203;-80
2022/01/23 08:11:36;;;;;;;14.13;7.97;;;6.90;99.90;;;;;;6174755;23;20170;-80
2022/01/23 08:14:02;;;;;;;10.40;6.83;;;6.90;99.90;;;;;;6177132;23;20170;-81
2022/01/23 08:16:29;;;;;;;9.87;7.30;;;6.90;99.90;;;;;;6177876;23;20437;-79
2022/01/23 08:18:56;;;;;;;13.40;7.77;;;6.90;99.90;;;;;;6177141;23;20194;-80
2022/01/23 08:21:23;;;;;;;21.70;8.90;;;7.00;99.90;;;;;;6176829;23;20183;-80
2022/01/23 08:23:53;;;;;;;21.63;10.63;;;7.00;99.90;;;;;;6177177;23;20182;-77
2022/01/23 08:26:22;;;;;;;17.20;8.93;;;7.00;99.90;;;;;;6178385;23;20813;-79
2022/01/23 08:28:49;;;;;;;14.80;8.23;;;7.00;99.90;;;;;;6177672;23;20185;-80
2022/01/23 08:31:16;;;;;;;13.23;8.93;;;7.00;99.90;;;;;;6178445;23;20185;-81
2022/01/23 08:33:43;;;;;;;11.97;8.50;;;7.00;99.90;;;;;;6177937;23;20210;-80
2022/01/23 08:36:09;;;;;;;15.87;8.23;;;7.10;99.90;;;;;;6178352;23;20175;-80
2022/01/23 08:38:36;;;;;;;13.47;8.33;;;7.10;99.90;;;;;;6178458;23;20190;-81
2022/01/23 08:43:50;;;;;;;16.80;9.17;;;7.10;99.90;;;;;;6179152;23;20352;-82
2022/01/23 08:46:17;;;;;;;11.50;8.47;;;7.10;99.90;;;;;;6178923;23;20182;-82
2022/01/23 08:48:44;;;;;;;15.80;8.93;;;7.10;99.90;;;;;;6177666;23;20568;-79
2022/01/23 08:51:11;;;;;;;13.20;8.90;;;7.10;99.90;;;;;;6177197;23;20174;-81
2022/01/23 08:53:39;;;;;;;13.33;8.60;;;7.10;99.90;;;;;;6175967;23;20171;-80
2022/01/23 08:56:06;;;;;;;19.10;9.43;;;7.10;99.90;;;;;;6176171;23;20171;-83
2022/01/23 08:58:33;;;;;;;12.23;8.47;;;7.10;99.90;;;;;;6179466;23;20175;-81
2022/01/23 09:01:01;;;;;;;15.23;9.53;;;7.20;99.90;;;;;;6178679;23;20629;-79
2022/01/23 09:03:28;;;;;;;11.00;8.10;;;7.20;99.90;;;;;;6176674;23;20174;-79
2022/01/23 09:05:55;;;;;;;19.63;9.77;;;7.20;99.90;;;;;;6178751;23;20234;-80
2022/01/23 09:08:22;;;;;;;23.00;11.50;;;7.20;99.90;;;;;;6177677;23;20235;-82
2022/01/23 09:10:55;;;;;;;14.40;9.50;;;7.20;99.90;;;;;;6177630;23;20182;-81
2022/01/23 09:13:32;;;;;;;16.30;10.13;;;7.30;99.90;;;;;;6177151;23;20206;-81
2022/01/23 09:16:01;;;;;;;16.37;10.37;;;7.30;99.90;;;;;;6177443;23;20179;-81
2022/01/23 09:18:28;;;;;;;16.07;9.87;;;7.30;99.90;;;;;;6178556;23;20213;-81
2022/01/23 09:20:55;;;;;;;17.17;11.23;;;7.30;99.90;;;;;;6176100;23;20190;-79
2022/01/23 09:23:22;;;;;;;16.93;10.43;;;7.30;99.90;;;;;;6175338;23;20175;-79
2022/01/23 09:25:49;;;;;;;17.77;12.20;;;7.40;99.90;;;;;;6174709;23;20223;-79
2022/01/23 09:28:18;;;;;;;22.03;11.03;;;7.40;99.90;;;;;;6175810;23;20190;-80
2022/01/23 09:30:49;;;;;;;17.80;11.20;;;7.40;99.90;;;;;;6174803;23;20194;-81
2022/01/23 09:33:18;;;;;;;17.47;10.87;;;7.50;99.90;;;;;;6175899;23;20370;-81
2022/01/23 09:35:44;;;;;;;13.67;9.70;;;7.50;99.90;;;;;;6176553;23;20175;-79
2022/01/23 09:38:11;;;;;;;15.90;9.90;;;7.50;99.90;;;;;;6176721;23;20209;-81
2022/01/23 09:40:41;;;;;;;20.60;11.47;;;7.50;99.90;;;;;;6176728;23;20199;-81
2022/01/23 09:43:10;;;;;;;22.53;12.67;;;7.60;99.90;;;;;;6176853;23;20189;-81
2022/01/23 09:45:37;;;;;;;14.93;10.20;;;7.60;99.90;;;;;;6175888;23;20173;-81
2022/01/23 09:48:05;;;;;;;15.10;10.33;;;7.60;99.90;;;;;;6176966;23;20178;-81
2022/01/23 09:50:35;;;;;;;13.20;8.97;;;7.60;99.90;;;;;;6176812;23;20173;-81
2022/01/23 09:53:03;;;;;;;15.97;11.77;;;7.70;99.90;;;;;;6176307;23;20199;-82
2022/01/23 09:55:32;;;;;;;15.17;11.33;;;7.70;99.90;;;;;;6177391;23;20847;-81
2022/01/23 09:57:59;;;;;;;19.37;11.13;;;7.70;99.90;;;;;;6177127;23;20174;-78
2022/01/23 10:00:28;;;;;;;15.20;10.87;;;7.70;99.90;;;;;;6176309;23;20194;-79
2022/01/23 10:02:57;;;;;;;19.37;11.13;;;7.80;99.90;;;;;;6177313;23;20257;-80
2022/01/23 10:05:24;;;;;;;24.43;12.83;;;7.80;99.90;;;;;;6174865;23;20228;-78
2022/01/23 10:07:54;;;;;;;17.53;11.73;;;7.80;99.90;;;;;;6176667;23;20171;-79
2022/01/23 10:10:26;;;;;;;20.00;10.80;;;7.90;99.90;;;;;;6176765;23;20173;-80
2022/01/23 10:12:55;;;;;;;19.10;11.97;;;7.90;99.90;;;;;;6175591;23;20182;-79
2022/01/23 10:15:25;;;;;;;15.53;10.47;;;7.90;99.90;;;;;;6176249;23;20170;-80
2022/01/23 10:17:52;;;;;;;17.57;9.97;;;7.90;99.90;;;;;;6176622;23;20170;-80
2022/01/23 10:20:19;;;;;;;16.03;10.13;;;8.00;99.90;;;;;;6175344;23;20202;-81
2022/01/23 10:22:49;;;;;;;13.60;9.63;;;8.00;99.90;;;;;;6176110;23;20170;-80
2022/01/23 10:25:20;;;;;;;18.10;9.77;;;8.00;99.90;;;;;;6176979;23;20182;-81
2022/01/23 10:28:03;;;;;;;16.13;10.03;;;8.00;99.90;;;;;;6176740;23;20171;-81
2022/01/23 10:30:33;;;;;;;16.63;10.67;;;8.00;99.90;;;;;;6176927;23;20173;-81
2022/01/23 10:33:04;;;;;;;12.93;9.17;;;8.00;99.90;;;;;;6177068;23;20957;-81
2022/01/23 10:35:32;;;;;;;16.47;10.47;;;8.10;99.90;;;;;;6176570;23;20230;-80
2022/01/23 10:38:07;;;;;;;18.20;11.63;;;8.10;99.90;;;;;;6177765;23;20199;-82
2022/01/23 10:40:47;;;;;;;17.73;10.87;;;8.10;99.90;;;;;;6176915;23;20194;-81
2022/01/23 10:48:47;;;;;;;17.60;11.10;;;8.20;99.90;;;;;;6178604;23;20186;-82
2022/01/23 10:51:26;;;;;;;21.80;11.97;;;8.20;99.90;;;;;;6179062;23;20174;-80
2022/01/23 10:54:15;;;;;;;20.30;11.57;;;8.20;99.90;;;;;;6179773;23;20170;-80
2022/01/23 10:57:00;;;;;;;17.27;11.40;;;8.30;99.90;;;;;;6176483;23;20813;-84
2022/01/23 10:59:38;;;;;;;14.57;11.20;;;8.30;99.90;;;;;;6172836;23;20198;-80
2022/01/23 11:02:07;;;;;;;18.70;12.03;;;8.30;99.90;;;;;;6175845;23;20200;-83
2022/01/23 11:04:37;;;;;;;17.57;11.03;;;8.30;99.90;;;;;;6177356;23;20190;-83
2022/01/23 11:07:07;;;;;;;19.43;12.63;;;8.30;99.90;;;;;;6178125;23;20175;-81
2022/01/23 11:09:37;;;;;;;18.33;11.50;;;8.30;99.90;;;;;;6177268;23;20670;-83
2022/01/23 11:12:14;;;;;;;17.03;10.73;;;8.30;99.90;;;;;;6177343;23;20237;-79
2022/01/23 11:17:27;;;;;;;15.07;9.90;;;8.40;99.90;;;;;;6175669;23;20169;-78
2022/01/23 11:19:57;;;;;;;14.83;10.57;;;8.40;99.90;;;;;;6175363;23;20198;-77
2022/01/23 11:22:26;;;;;;;18.77;10.30;;;8.40;99.90;;;;;;6174618;23;20167;-78
2022/01/23 11:24:56;;;;;;;16.00;10.73;;;8.40;99.90;;;;;;6175807;23;20178;-79
2022/01/23 11:27:33;;;;;;;16.50;10.63;;;8.40;99.90;;;;;;6176107;23;20263;-82
2022/01/23 11:30:05;;;;;;;15.47;10.23;;;8.40;99.90;;;;;;6175051;23;20221;-81
2022/01/23 11:32:36;;;;;;;14.37;10.73;;;8.50;99.90;;;;;;6172788;23;20262;-78
2022/01/23 11:35:08;;;;;;;15.63;10.53;;;8.40;99.90;;;;;;6176082;23;20175;-79
2022/01/23 11:37:39;;;;;;;13.47;9.00;;;8.50;99.90;;;;;;6175008;23;20290;-81
2022/01/23 11:40:21;;;;;;;15.93;11.50;;;8.50;99.90;;;;;;6174841;23;20940;-81
2022/01/23 11:54:14;;;;;;;20.40;12.60;;;8.50;99.90;;;;;;6177874;23;20245;-81
2022/01/23 11:56:45;;;;;;;22.73;13.63;;;8.50;99.90;;;;;;6177406;23;20210;-82
2022/01/23 11:59:26;;;;;;;23.03;13.00;;;8.50;99.90;;;;;;6178001;23;20171;-82
2022/01/23 12:02:26;;;;;;;14.67;10.67;;;8.50;99.90;;;;;;6177760;23;20222;-82
2022/01/23 12:05:23;;;;;;;18.40;12.57;;;8.50;99.90;;;;;;6177361;23;20178;-79
2022/01/23 12:08:19;;;;;;;16.87;11.13;;;8.50;99.90;;;;;;6177623;23;20223;-81
2022/01/23 12:17:10;;;;;;;20.93;11.37;;;8.50;99.90;;;;;;6177966;23;20202;-82
2022/01/23 12:19:47;;;;;;;18.10;12.33;;;8.50;99.90;;;;;;6177457;23;20181;-82
2022/01/23 12:22:34;;;;;;;21.40;11.73;;;8.50;99.90;;;;;;6176150;23;20163;-82
2022/01/23 12:25:11;;;;;;;14.97;10.97;;;8.50;99.90;;;;;;6177492;23;20923;-83
2022/01/23 12:27:39;;;;;;;17.10;9.97;;;8.60;99.90;;;;;;6176296;23;20174;-83
2022/01/23 12:30:31;;;;;;;14.60;9.27;;;8.60;99.90;;;;;;6179288;23;20181;-81
2022/01/23 12:33:12;;;;;;;14.50;9.03;;;8.60;99.90;;;;;;6174594;23;20203;-77
2022/01/23 12:35:41;;;;;;;16.43;9.90;;;8.60;99.90;;;;;;6178271;23;20764;-80
2022/01/23 12:38:10;;;;;;;14.37;9.43;;;8.60;99.90;;;;;;6177566;23;20194;-82
2022/01/23 12:40:41;;;;;;;12.57;9.23;;;8.60;99.90;;;;;;6177530;23;20203;-81
2022/01/23 12:43:09;;;;;;;14.27;9.83;;;8.70;99.90;;;;;;6177488;23;20217;-83
2022/01/23 12:45:53;;;;;;;14.87;10.93;;;8.70;99.90;;;;;;6179246;23;20182;-80
2022/01/23 12:48:40;;;;;;;12.97;8.97;;;8.70;99.90;;;;;;6179555;23;20166;-81
2022/01/23 12:51:09;;;;;;;14.77;9.13;;;8.70;99.90;;;;;;6180427;23;20175;-82
2022/01/23 12:53:37;;;;;;;11.13;8.63;;;8.70;99.90;;;;;;6179766;23;20175;-81
2022/01/23 12:56:05;;;;;;;12.67;9.70;;;8.70;99.90;;;;;;6178667;23;20566;-81
2022/01/23 12:58:33;;;;;;;11.57;7.97;;;8.70;99.90;;;;;;6176800;23;20497;-81
2022/01/23 13:01:04;;;;;;;12.03;9.17;;;8.70;99.90;;;;;;6176217;23;20937;-82
2022/01/23 13:03:31;;;;;;;13.40;8.60;;;8.70;99.90;;;;;;6176016;23;20178;-81
2022/01/23 13:05:58;;;;;;;13.43;8.60;;;8.70;99.90;;;;;;6176600;23;20434;-81
2022/01/23 13:08:30;;;;;;;9.30;7.07;;;8.70;99.90;;;;;;6174821;23;20180;-81
2022/01/23 13:13:59;;;;;;;12.43;7.40;;;8.70;99.90;;;;;;6165478;23;20238;-81
2022/01/23 13:16:36;;;;;;;9.23;6.73;;;8.70;99.90;;;;;;6175455;23;20174;-81
2022/01/23 13:19:45;;;;;;;8.17;5.93;;;8.70;99.90;;;;;;6177132;23;20175;-80
2022/01/23 13:30:47;;;;;;;4.90;3.10;;;8.60;99.90;;;;;;6055684;23;20176;-82
2022/01/23 13:33:20;;;;;;;4.87;3.00;;;8.60;99.90;;;;;;6154783;23;20281;-80
2022/01/23 13:35:51;;;;;;;6.73;2.90;;;8.60;99.90;;;;;;6177356;23;20253;-81
2022/01/23 13:38:19;;;;;;;3.37;2.63;;;8.70;99.90;;;;;;6175182;23;20261;-81
2022/01/23 13:40:46;;;;;;;4.03;2.40;;;8.60;99.90;;;;;;6175552;23;20607;-80
2022/01/23 13:49:44;;;;;;;2.80;2.40;;;8.60;99.90;;;;;;6178354;23;20169;-82
2022/01/23 13:51:59;;;;;;;2.47;2.10;;;8.70;99.90;;;;;;6178488;23;20249;-82
2022/01/23 13:57:39;;;;;;;5.17;3.13;;;8.70;99.90;;;;;;6177555;23;20622;-83
2022/01/23 14:00:13;;;;;;;6.20;3.10;;;8.70;99.90;;;;;;6178151;23;20544;-82
2022/01/23 14:02:44;;;;;;;5.40;3.10;;;8.70;99.90;;;;;;6175408;23;20229;-82
2022/01/23 14:05:15;;;;;;;5.97;2.83;;;8.70;99.90;;;;;;6175559;23;20213;-81
2022/01/23 14:07:46;;;;;;;4.20;2.43;;;8.70;99.90;;;;;;6176615;23;20181;-83
2022/01/23 14:10:16;;;;;;;3.90;2.60;;;8.80;99.90;;;;;;6176400;23;20163;-81
2022/01/23 14:12:43;;;;;;;3.47;2.73;;;8.80;99.90;;;;;;6176646;23;20167;-80
2022/01/23 14:15:15;;;;;;;4.63;3.13;;;8.80;99.90;;;;;;6151909;23;20282;-81
2022/01/23 14:17:43;;;;;;;3.73;2.67;;;8.70;99.90;;;;;;6176264;23;20656;-80
2022/01/23 14:20:14;;;;;;;3.93;2.70;;;8.80;99.90;;;;;;6176151;23;20191;-79
2022/01/23 14:22:42;;;;;;;3.43;2.53;;;8.80;99.90;;;;;;6178073;23;20163;-80
2022/01/23 14:25:15;;;;;;;6.23;3.80;;;8.80;99.90;;;;;;6177590;23;20175;-83
2022/01/23 14:27:44;;;;;;;4.67;3.20;;;8.80;99.90;;;;;;6177086;23;20186;-82
2022/01/23 14:30:14;;;;;;;3.50;2.63;;;8.80;99.90;;;;;;6177410;23;20182;-81
2022/01/23 14:32:45;;;;;;;3.23;2.20;;;8.80;99.90;;;;;;6175931;23;20556;-81
2022/01/23 14:35:17;;;;;;;4.20;2.30;;;8.80;99.90;;;;;;6178131;23;20166;-82
2022/01/23 14:37:46;;;;;;;3.60;1.67;;;8.80;99.90;;;;;;6177221;23;20186;-81
2022/01/23 14:40:18;;;;;;;4.43;1.90;;;8.80;99.90;;;;;;6176676;23;20181;-82
2022/01/23 14:43:05;;;;;;;3.87;2.30;;;8.80;99.90;;;;;;6177132;23;20185;-81
2022/01/23 14:45:33;;;;;;;2.43;1.80;;;8.80;99.90;;;;;;6177023;23;20174;-81
2022/01/23 14:48:00;;;;;;;2.20;1.53;;;8.80;99.90;;;;;;6175667;23;20633;-81
2022/01/23 14:50:31;;;;;;;2.57;1.80;;;8.80;99.90;;;;;;6176083;23;20177;-79
2022/01/23 14:52:58;;;;;;;2.33;1.47;;;8.80;99.90;;;;;;6176323;23;20240;-82
2022/01/23 14:55:25;;;;;;;5.00;2.20;;;8.80;99.90;;;;;;6176338;23;20182;-82
2022/01/23 14:57:55;;;;;;;4.50;1.90;;;8.80;99.90;;;;;;6176496;23;20265;-82
2022/01/23 15:00:22;;;;;;;3.33;1.80;;;8.80;99.90;;;;;;6177121;23;20169;-81
2022/01/23 15:02:49;;;;;;;2.53;1.70;;;8.80;99.90;;;;;;6176785;23;20202;-82
2022/01/23 15:05:15;;;;;;;3.57;3.10;;;8.80;99.90;;;;;;6176587;23;20186;-81
2022/01/23 15:07:44;;;;;;;3.63;2.73;;;8.70;99.90;;;;;;6176372;23;20178;-81
2022/01/23 15:10:11;;;;;;;2.73;2.53;;;8.70;99.90;;;;;;6177209;23;20178;-82
2022/01/23 15:12:39;;;;;;;3.47;2.23;;;8.70;99.90;;;;;;6178069;23;20701;-82
2022/01/23 15:15:07;;;;;;;4.50;2.40;;;8.70;99.90;;;;;;6177993;23;20181;-82
2022/01/23 15:17:36;;;;;;;5.40;2.33;;;8.70;99.90;;;;;;6176845;23;20564;-80
2022/01/23 15:20:03;;;;;;;3.10;2.10;;;8.60;99.90;;;;;;6177312;23;20226;-83
2022/01/23 15:22:30;;;;;;;6.50;3.13;;;8.60;99.90;;;;;;6176551;23;20195;-81
2022/01/23 15:24:58;;;;;;;4.07;2.47;;;8.60;99.90;;;;;;6176537;23;20246;-82
2022/01/23 15:27:25;;;;;;;4.37;2.97;;;8.50;99.90;;;;;;6175951;23;20171;-80
2022/01/23 15:29:52;;;;;;;5.73;2.70;;;8.50;99.90;;;;;;6176105;23;20186;-80
2022/01/23 15:32:19;;;;;;;3.10;2.20;;;8.50;99.90;;;;;;6176830;23;20203;-82
2022/01/23 15:34:46;;;;;;;2.43;1.90;;;8.50;99.90;;;;;;6175316;23;20972;-81
2022/01/23 15:37:14;;;;;;;1.73;1.63;;;8.50;99.90;;;;;;6175667;23;20185;-80
2022/01/23 15:39:41;;;;;;;2.20;1.83;;;8.50;99.90;;;;;;6176837;23;20432;-80
2022/01/23 15:42:10;;;;;;;2.30;2.10;;;8.40;99.90;;;;;;6177555;23;20191;-82
2022/01/23 15:44:36;;;;;;;2.20;1.50;;;8.40;99.90;;;;;;6175866;23;20174;-82
2022/01/23 15:47:04;;;;;;;8.20;3.10;;;8.40;99.90;;;;;;6176952;23;20711;-82
2022/01/23 15:49:31;;;;;;;3.90;3.43;;;8.30;99.90;;;;;;6177093;23;20493;-82
2022/01/23 15:51:58;;;;;;;5.80;3.80;;;8.30;99.90;;;;;;6176977;23;20181;-80